サイパン島 の空港の天気 - METARとTAF

サイパン国際空港 ( PGSN / SPN ) - 北マリアナ諸島 サイパン島
飛行場実況気象(Metar)
観測時間02/21 10:54 ChST (02/21 00:54 UTC)
風向・風速北東 8m/s
視程10km以上
天気現象
少しの雲 雲底高度 240m
全天の8割程度の雲 雲底高度 1680m
全天を覆う雲 雲底高度 2130m
気温25℃
湿度90%
気圧1016.5hPa
METARPGSN 210054Z 05016KT 10SM RA FEW008 BKN055 OVC070 25/23 A2995 RMK AO2 PK WND 06026/0036 SLP165 T02500233 PNO $
過去の天気等 Google飛行場航空写真 Wunderground天気予報

過去48時間のMETAR

飛行場予報(TAF)
発表時間: 2/21 09:42 ChST (2/20 23:42 UTC)
予報対象時間: 21日10時 ChST ~ 22日10時 ChST
風向・風速北東 9m/s 瞬間風速 12m/s
視程10km以上
天気現象周辺でしゅう雨
全天の4割程度の雲 雲底高度 610m
全天の4割程度の雲 雲底高度 1520m
PGSN 202342Z 2100/2124 05018G24KT P6SM VCSH SCT020 SCT050